sensor_id;sensor_type;location;lat;lon;timestamp;pressure;altitude;pressure_sealevel;temperature;humidity
23616;BME280;11985;49.404;7.734;2024-01-30T00:04:09;98569.13;;;1.47;100.00
23616;BME280;11985;49.404;7.734;2024-01-30T00:09:10;98566.06;;;1.42;100.00
23616;BME280;11985;49.404;7.734;2024-01-30T00:14:12;98565.13;;;1.43;100.00
23616;BME280;11985;49.404;7.734;2024-01-30T00:19:15;98567.03;;;1.52;100.00
23616;BME280;11985;49.404;7.734;2024-01-30T00:24:17;98570.78;;;1.59;100.00
23616;BME280;11985;49.404;7.734;2024-01-30T00:29:18;98567.63;;;1.56;100.00
23616;BME280;11985;49.404;7.734;2024-01-30T00:34:23;98568.91;;;1.50;100.00
23616;BME280;11985;49.404;7.734;2024-01-30T00:39:25;98564.16;;;1.44;100.00
23616;BME280;11985;49.404;7.734;2024-01-30T00:44:26;98561.81;;;1.41;100.00
23616;BME280;11985;49.404;7.734;2024-01-30T00:49:29;98562.16;;;1.37;100.00
23616;BME280;11985;49.404;7.734;2024-01-30T00:54:31;98575.25;;;1.35;100.00
23616;BME280;11985;49.404;7.734;2024-01-30T00:59:32;98564.88;;;1.35;100.00
23616;BME280;11985;49.404;7.734;2024-01-30T01:04:36;98562.41;;;1.34;100.00
23616;BME280;11985;49.404;7.734;2024-01-30T01:09:37;98571.13;;;1.32;100.00
23616;BME280;11985;49.404;7.734;2024-01-30T01:14:39;98567.00;;;1.30;100.00
23616;BME280;11985;49.404;7.734;2024-01-30T01:19:42;98563.69;;;1.28;100.00
23616;BME280;11985;49.404;7.734;2024-01-30T01:24:43;98561.56;;;1.33;100.00
23616;BME280;11985;49.404;7.734;2024-01-30T01:29:45;98564.66;;;1.61;100.00
23616;BME280;11985;49.404;7.734;2024-01-30T01:34:48;98565.84;;;2.13;100.00
23616;BME280;11985;49.404;7.734;2024-01-30T01:39:49;98563.75;;;2.38;100.00
23616;BME280;11985;49.404;7.734;2024-01-30T01:44:51;98569.69;;;2.73;100.00
23616;BME280;11985;49.404;7.734;2024-01-30T01:49:54;98571.47;;;2.93;100.00
23616;BME280;11985;49.404;7.734;2024-01-30T01:54:55;98560.72;;;3.18;100.00
23616;BME280;11985;49.404;7.734;2024-01-30T01:59:58;98560.50;;;3.31;100.00
23616;BME280;11985;49.404;7.734;2024-01-30T02:05:01;98560.13;;;3.36;100.00
23616;BME280;11985;49.404;7.734;2024-01-30T02:10:03;98554.84;;;3.47;100.00
23616;BME280;11985;49.404;7.734;2024-01-30T02:15:05;98557.66;;;3.65;100.00
23616;BME280;11985;49.404;7.734;2024-01-30T02:20:11;98554.34;;;3.84;100.00
23616;BME280;11985;49.404;7.734;2024-01-30T02:25:15;98547.88;;;3.88;100.00
23616;BME280;11985;49.404;7.734;2024-01-30T02:30:17;98547.53;;;3.71;100.00
23616;BME280;11985;49.404;7.734;2024-01-30T02:35:18;98546.13;;;3.58;100.00
23616;BME280;11985;49.404;7.734;2024-01-30T02:40:22;98545.53;;;3.54;100.00
23616;BME280;11985;49.404;7.734;2024-01-30T02:45:24;98539.22;;;3.47;100.00
23616;BME280;11985;49.404;7.734;2024-01-30T02:50:26;98542.78;;;3.46;100.00
23616;BME280;11985;49.404;7.734;2024-01-30T02:55:30;98549.88;;;3.44;100.00
23616;BME280;11985;49.404;7.734;2024-01-30T03:00:32;98545.91;;;3.40;100.00
23616;BME280;11985;49.404;7.734;2024-01-30T03:05:36;98535.94;;;3.45;100.00
23616;BME280;11985;49.404;7.734;2024-01-30T03:10:39;98539.47;;;3.44;100.00
23616;BME280;11985;49.404;7.734;2024-01-30T03:15:41;98545.53;;;3.54;100.00
23616;BME280;11985;49.404;7.734;2024-01-30T03:20:42;98545.28;;;3.88;100.00
23616;BME280;11985;49.404;7.734;2024-01-30T03:25:45;98542.13;;;3.84;100.00
23616;BME280;11985;49.404;7.734;2024-01-30T03:30:48;98541.34;;;4.03;100.00
23616;BME280;11985;49.404;7.734;2024-01-30T03:35:50;98540.56;;;4.12;100.00
23616;BME280;11985;49.404;7.734;2024-01-30T03:40:53;98540.41;;;4.14;100.00
23616;BME280;11985;49.404;7.734;2024-01-30T03:45:57;98534.53;;;4.12;100.00
23616;BME280;11985;49.404;7.734;2024-01-30T03:50:59;98535.75;;;4.08;100.00
23616;BME280;11985;49.404;7.734;2024-01-30T03:56:02;98537.25;;;4.10;100.00
23616;BME280;11985;49.404;7.734;2024-01-30T04:01:03;98538.91;;;4.11;100.00
23616;BME280;11985;49.404;7.734;2024-01-30T04:06:05;98534.09;;;4.16;100.00
23616;BME280;11985;49.404;7.734;2024-01-30T04:11:08;98537.84;;;4.23;100.00
23616;BME280;11985;49.404;7.734;2024-01-30T04:16:19;98531.78;;;4.33;100.00
23616;BME280;11985;49.404;7.734;2024-01-30T04:21:21;98533.19;;;4.46;100.00
23616;BME280;11985;49.404;7.734;2024-01-30T04:26:24;98537.19;;;4.60;100.00
23616;BME280;11985;49.404;7.734;2024-01-30T04:31:26;98533.75;;;4.69;100.00
23616;BME280;11985;49.404;7.734;2024-01-30T04:36:27;98531.16;;;4.79;100.00
23616;BME280;11985;49.404;7.734;2024-01-30T04:41:30;98537.47;;;4.86;100.00
23616;BME280;11985;49.404;7.734;2024-01-30T04:46:32;98540.34;;;5.02;100.00
23616;BME280;11985;49.404;7.734;2024-01-30T04:51:34;98537.16;;;5.09;100.00
23616;BME280;11985;49.404;7.734;2024-01-30T04:56:37;98539.47;;;5.21;100.00
23616;BME280;11985;49.404;7.734;2024-01-30T05:01:39;98538.94;;;5.27;100.00
23616;BME280;11985;49.404;7.734;2024-01-30T05:06:41;98545.25;;;5.25;100.00
23616;BME280;11985;49.404;7.734;2024-01-30T05:11:47;98552.66;;;5.29;100.00
23616;BME280;11985;49.404;7.734;2024-01-30T05:16:49;98551.59;;;5.22;100.00
23616;BME280;11985;49.404;7.734;2024-01-30T05:21:50;98554.47;;;5.19;100.00
23616;BME280;11985;49.404;7.734;2024-01-30T05:26:53;98549.66;;;5.05;100.00
23616;BME280;11985;49.404;7.734;2024-01-30T05:31:55;98552.72;;;4.91;100.00
23616;BME280;11985;49.404;7.734;2024-01-30T05:36:56;98555.75;;;4.67;100.00
23616;BME280;11985;49.404;7.734;2024-01-30T05:41:59;98564.50;;;4.66;100.00
23616;BME280;11985;49.404;7.734;2024-01-30T05:47:02;98559.59;;;4.63;100.00
23616;BME280;11985;49.404;7.734;2024-01-30T05:52:05;98560.97;;;4.67;100.00
23616;BME280;11985;49.404;7.734;2024-01-30T05:57:08;98555.88;;;4.65;100.00
23616;BME280;11985;49.404;7.734;2024-01-30T06:02:10;98560.41;;;4.63;100.00
23616;BME280;11985;49.404;7.734;2024-01-30T06:07:12;98566.72;;;4.51;100.00
23616;BME280;11985;49.404;7.734;2024-01-30T06:12:15;98568.63;;;4.49;100.00
23616;BME280;11985;49.404;7.734;2024-01-30T06:17:16;98554.34;;;4.53;100.00
23616;BME280;11985;49.404;7.734;2024-01-30T06:22:18;98550.25;;;4.50;100.00
23616;BME280;11985;49.404;7.734;2024-01-30T06:27:21;98553.50;;;4.43;100.00
23616;BME280;11985;49.404;7.734;2024-01-30T06:32:23;98548.03;;;4.46;100.00
23616;BME280;11985;49.404;7.734;2024-01-30T06:37:25;98548.44;;;4.51;100.00
23616;BME280;11985;49.404;7.734;2024-01-30T06:42:28;98553.53;;;4.62;100.00
23616;BME280;11985;49.404;7.734;2024-01-30T06:47:29;98551.78;;;4.72;100.00
23616;BME280;11985;49.404;7.734;2024-01-30T06:52:31;98558.78;;;4.72;100.00
23616;BME280;11985;49.404;7.734;2024-01-30T06:57:34;98560.28;;;4.74;100.00
23616;BME280;11985;49.404;7.734;2024-01-30T07:02:35;98567.44;;;4.72;100.00
23616;BME280;11985;49.404;7.734;2024-01-30T07:07:37;98567.28;;;4.84;100.00
23616;BME280;11985;49.404;7.734;2024-01-30T07:12:40;98567.41;;;4.92;100.00
23616;BME280;11985;49.404;7.734;2024-01-30T07:17:42;98580.22;;;4.95;100.00
23616;BME280;11985;49.404;7.734;2024-01-30T07:22:44;98579.91;;;4.98;100.00
23616;BME280;11985;49.404;7.734;2024-01-30T07:27:47;98573.88;;;5.07;100.00
23616;BME280;11985;49.404;7.734;2024-01-30T07:32:48;98576.91;;;5.12;100.00
23616;BME280;11985;49.404;7.734;2024-01-30T07:37:50;98587.03;;;5.25;100.00
23616;BME280;11985;49.404;7.734;2024-01-30T07:42:53;98587.28;;;5.41;100.00
23616;BME280;11985;49.404;7.734;2024-01-30T07:47:55;98583.13;;;5.58;100.00
23616;BME280;11985;49.404;7.734;2024-01-30T07:52:57;98582.28;;;5.67;100.00
23616;BME280;11985;49.404;7.734;2024-01-30T07:57:59;98578.97;;;5.65;100.00
23616;BME280;11985;49.404;7.734;2024-01-30T08:03:01;98588.84;;;5.71;100.00
23616;BME280;11985;49.404;7.734;2024-01-30T08:08:03;98600.69;;;5.75;100.00
23616;BME280;11985;49.404;7.734;2024-01-30T08:13:06;98596.97;;;5.78;100.00
23616;BME280;11985;49.404;7.734;2024-01-30T08:18:09;98601.50;;;5.76;100.00
23616;BME280;11985;49.404;7.734;2024-01-30T08:23:10;98610.56;;;5.81;100.00
23616;BME280;11985;49.404;7.734;2024-01-30T08:28:13;98602.84;;;5.90;100.00
23616;BME280;11985;49.404;7.734;2024-01-30T08:33:15;98605.59;;;5.98;100.00
23616;BME280;11985;49.404;7.734;2024-01-30T08:38:16;98604.44;;;6.10;100.00
23616;BME280;11985;49.404;7.734;2024-01-30T08:43:19;98607.25;;;6.26;100.00
23616;BME280;11985;49.404;7.734;2024-01-30T08:48:21;98598.63;;;6.44;100.00
23616;BME280;11985;49.404;7.734;2024-01-30T08:53:23;98600.94;;;6.47;100.00
23616;BME280;11985;49.404;7.734;2024-01-30T08:58:26;98602.69;;;6.56;100.00
23616;BME280;11985;49.404;7.734;2024-01-30T09:03:27;98593.50;;;6.52;100.00
23616;BME280;11985;49.404;7.734;2024-01-30T09:08:29;98599.78;;;6.59;100.00
23616;BME280;11985;49.404;7.734;2024-01-30T09:13:32;98610.78;;;6.63;100.00
23616;BME280;11985;49.404;7.734;2024-01-30T09:18:34;98607.41;;;6.70;100.00
23616;BME280;11985;49.404;7.734;2024-01-30T09:23:35;98598.84;;;6.78;100.00
23616;BME280;11985;49.404;7.734;2024-01-30T09:28:38;98612.00;;;6.86;100.00
23616;BME280;11985;49.404;7.734;2024-01-30T09:33:41;98618.81;;;6.97;100.00
23616;BME280;11985;49.404;7.734;2024-01-30T09:38:44;98625.09;;;7.04;100.00
23616;BME280;11985;49.404;7.734;2024-01-30T09:43:48;98625.56;;;7.17;100.00
23616;BME280;11985;49.404;7.734;2024-01-30T09:48:49;98631.22;;;7.30;100.00
23616;BME280;11985;49.404;7.734;2024-01-30T09:53:51;98625.22;;;7.38;100.00
23616;BME280;11985;49.404;7.734;2024-01-30T09:58:56;98623.31;;;7.48;100.00
23616;BME280;11985;49.404;7.734;2024-01-30T10:03:58;98625.81;;;7.50;100.00
23616;BME280;11985;49.404;7.734;2024-01-30T10:08:59;98623.25;;;7.58;100.00
23616;BME280;11985;49.404;7.734;2024-01-30T10:14:02;98631.88;;;7.76;100.00
23616;BME280;11985;49.404;7.734;2024-01-30T10:19:04;98632.31;;;7.89;100.00
23616;BME280;11985;49.404;7.734;2024-01-30T10:24:06;98625.09;;;7.91;100.00
23616;BME280;11985;49.404;7.734;2024-01-30T10:29:09;98639.09;;;8.00;100.00
23616;BME280;11985;49.404;7.734;2024-01-30T10:34:11;98633.88;;;8.08;100.00
23616;BME280;11985;49.404;7.734;2024-01-30T10:39:13;98641.03;;;7.98;100.00
23616;BME280;11985;49.404;7.734;2024-01-30T10:44:19;98646.78;;;8.02;100.00
23616;BME280;11985;49.404;7.734;2024-01-30T10:49:24;98642.25;;;8.12;100.00
23616;BME280;11985;49.404;7.734;2024-01-30T10:54:26;98643.91;;;8.13;100.00
23616;BME280;11985;49.404;7.734;2024-01-30T10:59:31;98640.00;;;8.17;100.00
23616;BME280;11985;49.404;7.734;2024-01-30T11:04:36;98631.97;;;8.18;100.00
23616;BME280;11985;49.404;7.734;2024-01-30T11:09:38;98622.91;;;8.13;100.00
23616;BME280;11985;49.404;7.734;2024-01-30T11:14:41;98616.84;;;8.12;100.00
23616;BME280;11985;49.404;7.734;2024-01-30T11:19:46;98619.34;;;8.22;100.00
23616;BME280;11985;49.404;7.734;2024-01-30T11:24:47;98623.63;;;8.31;100.00
23616;BME280;11985;49.404;7.734;2024-01-30T11:29:51;98620.84;;;8.33;100.00
23616;BME280;11985;49.404;7.734;2024-01-30T11:34:53;98609.41;;;8.34;100.00
23616;BME280;11985;49.404;7.734;2024-01-30T11:39:55;98623.03;;;8.37;100.00
23616;BME280;11985;49.404;7.734;2024-01-30T11:45:00;98610.78;;;8.54;100.00
23616;BME280;11985;49.404;7.734;2024-01-30T11:50:04;98603.75;;;8.63;100.00
23616;BME280;11985;49.404;7.734;2024-01-30T11:55:07;98590.50;;;8.72;100.00
23616;BME280;11985;49.404;7.734;2024-01-30T12:00:15;98591.47;;;8.71;100.00
23616;BME280;11985;49.404;7.734;2024-01-30T12:05:19;98591.66;;;8.78;100.00
23616;BME280;11985;49.404;7.734;2024-01-30T12:10:22;98596.91;;;8.86;100.00
23616;BME280;11985;49.404;7.734;2024-01-30T12:15:25;98586.06;;;8.81;100.00
23616;BME280;11985;49.404;7.734;2024-01-30T12:20:27;98591.81;;;8.93;100.00
23616;BME280;11985;49.404;7.734;2024-01-30T12:25:29;98584.13;;;8.99;100.00
23616;BME280;11985;49.404;7.734;2024-01-30T12:30:34;98589.38;;;8.99;100.00
23616;BME280;11985;49.404;7.734;2024-01-30T12:35:36;98588.06;;;8.95;100.00
23616;BME280;11985;49.404;7.734;2024-01-30T12:40:37;98592.66;;;9.02;100.00
23616;BME280;11985;49.404;7.734;2024-01-30T12:45:41;98593.16;;;9.30;100.00
23616;BME280;11985;49.404;7.734;2024-01-30T12:50:42;98589.72;;;9.45;100.00
23616;BME280;11985;49.404;7.734;2024-01-30T12:55:44;98584.44;;;9.37;100.00
23616;BME280;11985;49.404;7.734;2024-01-30T13:00:47;98581.00;;;9.37;100.00
23616;BME280;11985;49.404;7.734;2024-01-30T13:05:48;98584.44;;;9.45;100.00
23616;BME280;11985;49.404;7.734;2024-01-30T13:10:50;98577.69;;;9.51;100.00
23616;BME280;11985;49.404;7.734;2024-01-30T13:15:53;98567.81;;;9.61;100.00
23616;BME280;11985;49.404;7.734;2024-01-30T13:20:55;98560.72;;;9.70;100.00
23616;BME280;11985;49.404;7.734;2024-01-30T13:25:56;98553.19;;;9.59;100.00
23616;BME280;11985;49.404;7.734;2024-01-30T13:31:00;98553.53;;;9.56;100.00
23616;BME280;11985;49.404;7.734;2024-01-30T13:36:02;98558.78;;;9.56;100.00
23616;BME280;11985;49.404;7.734;2024-01-30T13:41:04;98556.00;;;9.57;100.00
23616;BME280;11985;49.404;7.734;2024-01-30T13:46:07;98546.09;;;9.67;100.00
23616;BME280;11985;49.404;7.734;2024-01-30T13:51:08;98553.97;;;9.75;100.00
23616;BME280;11985;49.404;7.734;2024-01-30T13:56:11;98555.47;;;9.70;100.00
23616;BME280;11985;49.404;7.734;2024-01-30T14:01:14;98562.72;;;9.60;100.00
23616;BME280;11985;49.404;7.734;2024-01-30T14:06:15;98566.16;;;9.60;100.00
23616;BME280;11985;49.404;7.734;2024-01-30T14:11:18;98567.84;;;9.45;100.00
23616;BME280;11985;49.404;7.734;2024-01-30T14:16:21;98573.44;;;9.34;100.00
23616;BME280;11985;49.404;7.734;2024-01-30T14:21:24;98576.25;;;9.24;100.00
23616;BME280;11985;49.404;7.734;2024-01-30T14:26:26;98588.75;;;9.22;100.00
23616;BME280;11985;49.404;7.734;2024-01-30T14:31:30;98587.72;;;9.15;100.00
23616;BME280;11985;49.404;7.734;2024-01-30T14:36:32;98586.75;;;9.08;100.00
23616;BME280;11985;49.404;7.734;2024-01-30T14:41:33;98594.31;;;9.11;100.00
23616;BME280;11985;49.404;7.734;2024-01-30T14:46:36;98601.88;;;9.14;100.00
23616;BME280;11985;49.404;7.734;2024-01-30T14:51:38;98602.84;;;9.21;100.00
23616;BME280;11985;49.404;7.734;2024-01-30T14:56:40;98602.22;;;9.11;100.00
23616;BME280;11985;49.404;7.734;2024-01-30T15:01:43;98597.09;;;9.01;100.00
23616;BME280;11985;49.404;7.734;2024-01-30T15:06:45;98598.88;;;8.92;100.00
23616;BME280;11985;49.404;7.734;2024-01-30T15:11:48;98603.81;;;8.79;100.00
23616;BME280;11985;49.404;7.734;2024-01-30T15:16:52;98601.16;;;8.71;100.00
23616;BME280;11985;49.404;7.734;2024-01-30T15:21:53;98604.75;;;8.62;100.00
23616;BME280;11985;49.404;7.734;2024-01-30T15:26:55;98610.66;;;8.64;100.00
23616;BME280;11985;49.404;7.734;2024-01-30T15:32:00;98610.66;;;8.56;100.00
23616;BME280;11985;49.404;7.734;2024-01-30T15:37:03;98608.97;;;8.46;100.00
23616;BME280;11985;49.404;7.734;2024-01-30T15:42:05;98620.47;;;8.45;100.00
23616;BME280;11985;49.404;7.734;2024-01-30T15:47:08;98618.53;;;8.56;100.00
23616;BME280;11985;49.404;7.734;2024-01-30T15:52:10;98621.81;;;8.58;100.00
23616;BME280;11985;49.404;7.734;2024-01-30T15:57:14;98624.91;;;8.53;100.00
23616;BME280;11985;49.404;7.734;2024-01-30T16:02:17;98639.66;;;8.46;100.00
23616;BME280;11985;49.404;7.734;2024-01-30T16:07:20;98633.59;;;8.45;100.00
23616;BME280;11985;49.404;7.734;2024-01-30T16:12:22;98629.97;;;8.38;100.00
23616;BME280;11985;49.404;7.734;2024-01-30T16:17:25;98629.63;;;8.41;100.00
23616;BME280;11985;49.404;7.734;2024-01-30T16:22:26;98630.22;;;8.35;100.00
23616;BME280;11985;49.404;7.734;2024-01-30T16:27:28;98648.91;;;8.32;100.00
23616;BME280;11985;49.404;7.734;2024-01-30T16:32:31;98643.66;;;8.32;100.00
23616;BME280;11985;49.404;7.734;2024-01-30T16:37:33;98653.66;;;8.29;100.00
23616;BME280;11985;49.404;7.734;2024-01-30T16:42:34;98658.59;;;8.32;100.00
23616;BME280;11985;49.404;7.734;2024-01-30T16:47:37;98673.91;;;8.36;100.00
23616;BME280;11985;49.404;7.734;2024-01-30T16:52:39;98679.84;;;8.38;100.00
23616;BME280;11985;49.404;7.734;2024-01-30T16:57:41;98682.59;;;8.37;100.00
23616;BME280;11985;49.404;7.734;2024-01-30T17:02:44;98689.94;;;8.33;100.00
23616;BME280;11985;49.404;7.734;2024-01-30T17:07:46;98684.84;;;8.32;100.00
23616;BME280;11985;49.404;7.734;2024-01-30T17:12:47;98692.56;;;8.33;100.00
23616;BME280;11985;49.404;7.734;2024-01-30T17:17:51;98695.84;;;8.35;100.00
23616;BME280;11985;49.404;7.734;2024-01-30T17:22:53;98691.22;;;8.29;100.00
23616;BME280;11985;49.404;7.734;2024-01-30T17:27:55;98710.59;;;8.28;100.00
23616;BME280;11985;49.404;7.734;2024-01-30T17:32:59;98716.13;;;8.25;100.00
23616;BME280;11985;49.404;7.734;2024-01-30T17:38:00;98736.47;;;8.23;100.00
23616;BME280;11985;49.404;7.734;2024-01-30T17:43:02;98739.94;;;8.24;100.00
23616;BME280;11985;49.404;7.734;2024-01-30T17:48:06;98734.56;;;8.33;100.00
23616;BME280;11985;49.404;7.734;2024-01-30T17:53:08;98748.78;;;8.49;100.00
23616;BME280;11985;49.404;7.734;2024-01-30T17:58:09;98749.97;;;8.54;100.00
23616;BME280;11985;49.404;7.734;2024-01-30T18:03:12;98756.66;;;8.49;100.00
23616;BME280;11985;49.404;7.734;2024-01-30T18:08:14;98746.66;;;8.44;100.00
23616;BME280;11985;49.404;7.734;2024-01-30T18:13:16;98750.56;;;8.40;100.00
23616;BME280;11985;49.404;7.734;2024-01-30T18:18:19;98755.47;;;8.43;100.00
23616;BME280;11985;49.404;7.734;2024-01-30T18:23:20;98765.84;;;8.44;100.00
23616;BME280;11985;49.404;7.734;2024-01-30T18:28:22;98765.16;;;8.42;100.00
23616;BME280;11985;49.404;7.734;2024-01-30T18:33:25;98765.50;;;8.39;100.00
23616;BME280;11985;49.404;7.734;2024-01-30T18:38:27;98767.44;;;8.37;100.00
23616;BME280;11985;49.404;7.734;2024-01-30T18:43:29;98767.72;;;8.34;100.00
23616;BME280;11985;49.404;7.734;2024-01-30T18:48:32;98763.84;;;8.38;100.00
23616;BME280;11985;49.404;7.734;2024-01-30T18:53:35;98768.03;;;8.57;100.00
23616;BME280;11985;49.404;7.734;2024-01-30T18:58:36;98771.22;;;8.69;100.00
23616;BME280;11985;49.404;7.734;2024-01-30T19:03:39;98779.91;;;8.61;100.00
23616;BME280;11985;49.404;7.734;2024-01-30T19:08:41;98780.72;;;8.62;100.00
23616;BME280;11985;49.404;7.734;2024-01-30T19:13:42;98784.31;;;8.61;100.00
23616;BME280;11985;49.404;7.734;2024-01-30T19:18:45;98787.88;;;8.52;100.00
23616;BME280;11985;49.404;7.734;2024-01-30T19:23:49;98789.16;;;8.48;100.00
23616;BME280;11985;49.404;7.734;2024-01-30T19:28:51;98796.66;;;8.42;100.00
23616;BME280;11985;49.404;7.734;2024-01-30T19:33:54;98796.19;;;8.39;100.00
23616;BME280;11985;49.404;7.734;2024-01-30T19:38:56;98803.50;;;8.35;100.00
23616;BME280;11985;49.404;7.734;2024-01-30T19:43:58;98803.94;;;8.31;100.00
23616;BME280;11985;49.404;7.734;2024-01-30T19:49:01;98800.13;;;8.25;100.00
23616;BME280;11985;49.404;7.734;2024-01-30T19:54:03;98803.75;;;8.24;100.00
23616;BME280;11985;49.404;7.734;2024-01-30T19:59:05;98803.34;;;8.37;100.00
23616;BME280;11985;49.404;7.734;2024-01-30T20:04:08;98802.59;;;8.44;100.00
23616;BME280;11985;49.404;7.734;2024-01-30T20:09:10;98800.34;;;8.50;100.00
23616;BME280;11985;49.404;7.734;2024-01-30T20:14:11;98808.34;;;8.48;100.00
23616;BME280;11985;49.404;7.734;2024-01-30T20:19:14;98809.78;;;8.42;100.00
23616;BME280;11985;49.404;7.734;2024-01-30T20:24:16;98816.78;;;8.34;100.00
23616;BME280;11985;49.404;7.734;2024-01-30T20:29:18;98831.00;;;8.31;100.00
23616;BME280;11985;49.404;7.734;2024-01-30T20:34:21;98821.44;;;8.22;100.00
23616;BME280;11985;49.404;7.734;2024-01-30T20:39:22;98812.59;;;8.23;100.00
23616;BME280;11985;49.404;7.734;2024-01-30T20:44:24;98815.97;;;8.15;100.00
23616;BME280;11985;49.404;7.734;2024-01-30T20:49:27;98809.41;;;8.11;100.00
23616;BME280;11985;49.404;7.734;2024-01-30T20:54:29;98816.56;;;8.09;100.00
23616;BME280;11985;49.404;7.734;2024-01-30T20:59:31;98812.97;;;8.10;100.00
23616;BME280;11985;49.404;7.734;2024-01-30T21:04:34;98819.78;;;8.21;100.00
23616;BME280;11985;49.404;7.734;2024-01-30T21:09:36;98815.28;;;8.31;100.00
23616;BME280;11985;49.404;7.734;2024-01-30T21:14:37;98823.53;;;8.36;100.00
23616;BME280;11985;49.404;7.734;2024-01-30T21:19:40;98828.56;;;8.30;100.00
23616;BME280;11985;49.404;7.734;2024-01-30T21:24:42;98818.06;;;8.30;100.00
23616;BME280;11985;49.404;7.734;2024-01-30T21:29:44;98814.53;;;8.21;100.00
23616;BME280;11985;49.404;7.734;2024-01-30T21:34:46;98814.31;;;8.14;100.00
23616;BME280;11985;49.404;7.734;2024-01-30T21:39:48;98813.34;;;8.15;100.00
23616;BME280;11985;49.404;7.734;2024-01-30T21:44:50;98812.16;;;8.10;100.00
23616;BME280;11985;49.404;7.734;2024-01-30T21:49:56;98818.16;;;8.02;100.00
23616;BME280;11985;49.404;7.734;2024-01-30T21:54:59;98823.84;;;7.98;100.00
23616;BME280;11985;49.404;7.734;2024-01-30T22:00:01;98809.91;;;7.97;100.00
23616;BME280;11985;49.404;7.734;2024-01-30T22:05:06;98824.91;;;8.05;100.00
23616;BME280;11985;49.404;7.734;2024-01-30T22:10:08;98826.63;;;8.14;100.00
23616;BME280;11985;49.404;7.734;2024-01-30T22:15:10;98831.22;;;8.12;100.00
23616;BME280;11985;49.404;7.734;2024-01-30T22:20:13;98826.09;;;8.10;100.00
23616;BME280;11985;49.404;7.734;2024-01-30T22:25:15;98834.28;;;8.07;100.00
23616;BME280;11985;49.404;7.734;2024-01-30T22:30:17;98830.47;;;8.02;100.00
23616;BME280;11985;49.404;7.734;2024-01-30T22:35:20;98835.03;;;8.00;100.00
23616;BME280;11985;49.404;7.734;2024-01-30T22:40:22;98832.56;;;7.98;100.00
23616;BME280;11985;49.404;7.734;2024-01-30T22:45:23;98833.53;;;7.97;100.00
23616;BME280;11985;49.404;7.734;2024-01-30T22:50:26;98836.97;;;7.98;100.00
23616;BME280;11985;49.404;7.734;2024-01-30T22:55:28;98844.91;;;7.88;100.00
23616;BME280;11985;49.404;7.734;2024-01-30T23:00:30;98853.94;;;7.85;100.00
23616;BME280;11985;49.404;7.734;2024-01-30T23:05:33;98860.44;;;7.81;100.00
23616;BME280;11985;49.404;7.734;2024-01-30T23:10:35;98859.47;;;7.82;100.00
23616;BME280;11985;49.404;7.734;2024-01-30T23:15:36;98862.41;;;7.79;100.00
23616;BME280;11985;49.404;7.734;2024-01-30T23:20:39;98864.63;;;7.74;100.00
23616;BME280;11985;49.404;7.734;2024-01-30T23:25:41;98865.31;;;7.76;100.00
23616;BME280;11985;49.404;7.734;2024-01-30T23:30:42;98866.94;;;7.77;100.00
23616;BME280;11985;49.404;7.734;2024-01-30T23:35:45;98870.41;;;7.78;100.00
23616;BME280;11985;49.404;7.734;2024-01-30T23:40:48;98865.69;;;7.81;100.00
23616;BME280;11985;49.404;7.734;2024-01-30T23:45:50;98871.38;;;7.77;100.00
23616;BME280;11985;49.404;7.734;2024-01-30T23:50:53;98868.06;;;7.75;100.00
23616;BME280;11985;49.404;7.734;2024-01-30T23:55:54;98873.16;;;7.76;100.00
